createdAt,value
2018-02-05T00:00:56.497Z,1020.14
2018-02-05T00:01:56.546Z,1020.13
2018-02-05T00:02:56.499Z,1020.20
2018-02-05T00:03:56.558Z,1020.18
2018-02-05T00:04:56.504Z,1020.23
2018-02-05T00:05:56.580Z,1020.20
2018-02-05T00:06:56.497Z,1020.20
2018-02-05T00:07:56.590Z,1020.24
2018-02-05T00:08:56.506Z,1020.27
2018-02-05T00:09:56.600Z,1020.23
2018-02-05T00:10:56.504Z,1020.28
2018-02-05T00:11:56.604Z,1020.26
2018-02-05T00:12:59.106Z,1020.27
2018-02-05T00:13:59.106Z,1020.26
2018-02-05T00:14:56.512Z,1020.27
2018-02-05T00:15:58.098Z,1020.26
2018-02-05T00:16:58.100Z,1020.22
2018-02-05T00:17:59.100Z,1020.24
2018-02-05T00:19:03.108Z,1020.19
2018-02-05T00:19:56.515Z,1020.21
2018-02-05T00:20:56.519Z,1020.23
2018-02-05T00:21:56.517Z,1020.18
2018-02-05T00:22:58.099Z,1020.21
2018-02-05T00:24:03.114Z,1020.14
2018-02-05T00:24:56.522Z,1020.13
2018-02-05T00:25:58.261Z,1020.16
2018-02-05T00:26:56.522Z,1020.22
2018-02-05T00:27:56.534Z,1020.16
2018-02-05T00:28:56.616Z,1020.13
2018-02-05T00:29:56.522Z,1020.13
2018-02-05T00:30:56.631Z,1020.19
2018-02-05T00:31:56.522Z,1020.20
2018-02-05T00:32:56.656Z,1020.23
2018-02-05T00:33:56.525Z,1020.26
2018-02-05T00:34:56.556Z,1020.31
2018-02-05T00:35:56.537Z,1020.23
2018-02-05T00:36:56.577Z,1020.28
2018-02-05T00:37:59.111Z,1020.28
2018-02-05T00:38:56.547Z,1020.31
2018-02-05T00:39:56.650Z,1020.35
2018-02-05T00:40:56.539Z,1020.33
2018-02-05T00:41:56.660Z,1020.32
2018-02-05T00:43:03.121Z,1020.28
2018-02-05T00:43:58.117Z,1020.28
2018-02-05T00:44:58.111Z,1020.30
2018-02-05T00:45:56.537Z,1020.29
2018-02-05T00:46:56.724Z,1020.35
2018-02-05T00:47:57.112Z,1020.32
2018-02-05T00:48:59.103Z,1020.26
2018-02-05T00:49:56.552Z,1020.25
2018-02-05T00:50:59.100Z,1020.33
2018-02-05T00:51:56.541Z,1020.26
2018-02-05T00:52:58.710Z,1020.26
2018-02-05T00:53:56.555Z,1020.26
2018-02-05T00:55:02.301Z,1020.28
2018-02-05T00:55:56.543Z,1020.30
2018-02-05T00:56:56.687Z,1020.32
2018-02-05T00:57:56.556Z,1020.27
2018-02-05T00:58:56.562Z,1020.28
2018-02-05T00:59:56.559Z,1020.27
2018-02-05T01:00:56.546Z,1020.25
2018-02-05T01:02:11.165Z,1020.24
2018-02-05T01:02:56.553Z,1020.29
2018-02-05T01:04:01.251Z,1020.28
2018-02-05T01:04:56.563Z,1020.21
2018-02-05T01:06:01.169Z,1020.20
2018-02-05T01:06:56.569Z,1020.18
2018-02-05T01:07:56.666Z,1020.23
2018-02-05T01:08:56.560Z,1020.22
2018-02-05T01:10:08.153Z,1020.23
2018-02-05T01:10:56.554Z,1020.22
2018-02-05T01:11:56.590Z,1020.23
2018-02-05T01:12:56.553Z,1020.18
2018-02-05T01:13:56.601Z,1020.21
2018-02-05T01:14:56.559Z,1020.23
2018-02-05T01:15:56.618Z,1020.20
2018-02-05T01:16:56.562Z,1020.21
2018-02-05T01:17:57.636Z,1020.25
2018-02-05T01:18:56.561Z,1020.19
2018-02-05T01:19:56.644Z,1020.17
2018-02-05T01:20:56.562Z,1020.21
2018-02-05T01:21:56.658Z,1020.22
2018-02-05T01:22:56.563Z,1020.19
2018-02-05T01:23:56.671Z,1020.20
2018-02-05T01:24:56.570Z,1020.20
2018-02-05T01:25:56.682Z,1020.26
2018-02-05T01:26:56.573Z,1020.23
2018-02-05T01:27:56.679Z,1020.29
2018-02-05T01:28:56.571Z,1020.24
2018-02-05T01:29:56.573Z,1020.27
2018-02-05T01:30:56.619Z,1020.33
2018-02-05T01:31:56.573Z,1020.33
2018-02-05T01:32:56.626Z,1020.38
2018-02-05T01:33:56.599Z,1020.37
2018-02-05T01:34:56.641Z,1020.41
2018-02-05T01:35:56.580Z,1020.39
2018-02-05T01:36:56.654Z,1020.38
2018-02-05T01:37:56.573Z,1020.38
2018-02-05T01:38:56.670Z,1020.40
2018-02-05T01:39:56.580Z,1020.41
2018-02-05T01:40:56.683Z,1020.40
2018-02-05T01:41:56.582Z,1020.40
2018-02-05T01:42:56.693Z,1020.38
2018-02-05T01:43:56.578Z,1020.41
2018-02-05T01:44:56.717Z,1020.41
2018-02-05T01:45:56.587Z,1020.37
2018-02-05T01:46:57.641Z,1020.40
2018-02-05T01:47:56.606Z,1020.36
2018-02-05T01:48:56.635Z,1020.39
2018-02-05T01:49:56.599Z,1020.36
2018-02-05T01:50:57.670Z,1020.39
2018-02-05T01:51:56.604Z,1020.36
2018-02-05T01:52:57.690Z,1020.37
2018-02-05T01:53:56.600Z,1020.36
2018-02-05T01:54:56.675Z,1020.36
2018-02-05T01:55:56.592Z,1020.31
2018-02-05T01:56:56.689Z,1020.29
2018-02-05T01:57:56.594Z,1020.34
2018-02-05T01:58:57.728Z,1020.33
2018-02-05T01:59:56.600Z,1020.34
2018-02-05T02:00:56.721Z,1020.39
2018-02-05T02:01:56.591Z,1020.44
2018-02-05T02:02:56.728Z,1020.37
2018-02-05T02:03:56.610Z,1020.39
2018-02-05T02:04:56.754Z,1020.39
2018-02-05T02:05:56.595Z,1020.39
2018-02-05T02:06:56.656Z,1020.46
2018-02-05T02:07:56.610Z,1020.51
2018-02-05T02:08:56.667Z,1020.41
2018-02-05T02:09:56.603Z,1020.48
2018-02-05T02:10:56.683Z,1020.48
2018-02-05T02:11:56.613Z,1020.43
2018-02-05T02:12:56.694Z,1020.42
2018-02-05T02:13:56.608Z,1020.46
2018-02-05T02:14:56.711Z,1020.45
2018-02-05T02:15:56.609Z,1020.46
2018-02-05T02:16:56.720Z,1020.46
2018-02-05T02:17:56.607Z,1020.42
2018-02-05T02:18:56.733Z,1020.44
2018-02-05T02:19:56.605Z,1020.42
2018-02-05T02:20:56.749Z,1020.47
2018-02-05T02:21:56.623Z,1020.43
2018-02-05T02:22:56.682Z,1020.40
2018-02-05T02:23:56.609Z,1020.43
2018-02-05T02:24:56.679Z,1020.40
2018-02-05T02:25:56.613Z,1020.36
2018-02-05T02:26:56.684Z,1020.37
2018-02-05T02:27:56.615Z,1020.41
2018-02-05T02:28:56.701Z,1020.39
2018-02-05T02:29:56.612Z,1020.39
2018-02-05T02:30:57.739Z,1020.42
2018-02-05T02:31:56.620Z,1020.45
2018-02-05T02:32:56.728Z,1020.41
2018-02-05T02:33:56.624Z,1020.45
2018-02-05T02:34:56.741Z,1020.44
2018-02-05T02:35:56.651Z,1020.47
2018-02-05T02:36:57.678Z,1020.42
2018-02-05T02:37:57.616Z,1020.43
2018-02-05T02:38:56.765Z,1020.37
2018-02-05T02:39:56.613Z,1020.46
2018-02-05T02:40:56.685Z,1020.50
2018-02-05T02:41:56.625Z,1020.39
2018-02-05T02:42:56.698Z,1020.41
2018-02-05T02:43:56.629Z,1020.39
2018-02-05T02:44:56.706Z,1020.40
2018-02-05T02:45:56.640Z,1020.38
2018-02-05T02:46:57.744Z,1020.42
2018-02-05T02:47:56.644Z,1020.42
2018-02-05T02:48:56.839Z,1020.46
2018-02-05T02:49:56.639Z,1020.44
2018-02-05T02:50:56.707Z,1020.41
2018-02-05T02:51:56.633Z,1020.41
2018-02-05T02:52:56.626Z,1020.40
2018-02-05T02:53:56.630Z,1020.47
2018-02-05T02:54:56.776Z,1020.40
2018-02-05T02:55:56.630Z,1020.43
2018-02-05T02:56:56.788Z,1020.40
2018-02-05T02:57:56.629Z,1020.47
2018-02-05T02:58:56.702Z,1020.44
2018-02-05T02:59:56.640Z,1020.46
2018-02-05T03:00:57.739Z,1020.51
2018-02-05T03:01:56.632Z,1020.47
2018-02-05T03:02:56.678Z,1020.43
2018-02-05T03:03:56.644Z,1020.50
2018-02-05T03:04:56.704Z,1020.45
2018-02-05T03:05:56.635Z,1020.41
2018-02-05T03:06:57.737Z,1020.50
2018-02-05T03:07:56.645Z,1020.49
2018-02-05T03:08:57.855Z,1020.48
2018-02-05T03:09:56.639Z,1020.50
2018-02-05T03:10:56.743Z,1020.53
2018-02-05T03:11:56.642Z,1020.53
2018-02-05T03:12:56.749Z,1020.49
2018-02-05T03:13:56.655Z,1020.52
2018-02-05T03:14:56.764Z,1020.46
2018-02-05T03:15:56.639Z,1020.51
2018-02-05T03:16:56.678Z,1020.51
2018-02-05T03:17:56.649Z,1020.56
2018-02-05T03:18:56.708Z,1020.59
2018-02-05T03:19:56.649Z,1020.55
2018-02-05T03:20:56.656Z,1020.60
2018-02-05T03:21:56.745Z,1020.59
2018-02-05T03:22:56.651Z,1020.56
2018-02-05T03:23:56.758Z,1020.63
2018-02-05T03:24:56.645Z,1020.61
2018-02-05T03:25:56.771Z,1020.62
2018-02-05T03:26:56.670Z,1020.68
2018-02-05T03:27:56.784Z,1020.63
2018-02-05T03:28:56.651Z,1020.68
2018-02-05T03:29:56.810Z,1020.69
2018-02-05T03:30:56.662Z,1020.63
2018-02-05T03:31:56.819Z,1020.68
2018-02-05T03:32:56.650Z,1020.66
2018-02-05T03:33:56.676Z,1020.70
2018-02-05T03:34:56.657Z,1020.68
2018-02-05T03:35:56.742Z,1020.71
2018-02-05T03:36:56.663Z,1020.73
2018-02-05T03:37:56.775Z,1020.76
2018-02-05T03:38:56.670Z,1020.74
2018-02-05T03:39:56.779Z,1020.71
2018-02-05T03:40:56.656Z,1020.80
2018-02-05T03:41:56.793Z,1020.77
2018-02-05T03:42:56.661Z,1020.78
2018-02-05T03:43:56.665Z,1020.84
2018-02-05T03:44:56.660Z,1020.81
2018-02-05T03:45:56.818Z,1020.84
2018-02-05T03:46:56.664Z,1020.81
2018-02-05T03:47:56.823Z,1020.87
2018-02-05T03:48:56.659Z,1020.87
2018-02-05T03:49:56.845Z,1020.85
2018-02-05T03:50:56.661Z,1020.86
2018-02-05T03:51:56.746Z,1020.87
2018-02-05T03:52:56.661Z,1020.87
2018-02-05T03:53:56.760Z,1020.88
2018-02-05T03:54:56.672Z,1020.88
2018-02-05T03:55:56.773Z,1020.90
2018-02-05T03:56:56.668Z,1020.90
2018-02-05T03:57:56.790Z,1020.96
2018-02-05T03:58:56.665Z,1020.92
2018-02-05T03:59:56.809Z,1020.91
2018-02-05T04:00:56.670Z,1020.92
2018-02-05T04:01:56.826Z,1020.98
2018-02-05T04:02:56.673Z,1020.96
2018-02-05T04:03:56.948Z,1021.00
2018-02-05T04:04:56.674Z,1021.01
2018-02-05T04:05:56.769Z,1020.96
2018-02-05T04:06:56.672Z,1021.02
2018-02-05T04:07:56.862Z,1021.02
2018-02-05T04:08:56.674Z,1021.03
2018-02-05T04:09:56.763Z,1021.00
2018-02-05T04:10:56.667Z,1021.05
2018-02-05T04:11:56.785Z,1021.09
2018-02-05T04:12:56.674Z,1021.04
2018-02-05T04:13:57.813Z,1021.05
2018-02-05T04:14:56.675Z,1021.05
2018-02-05T04:15:56.688Z,1021.05
2018-02-05T04:16:56.817Z,1021.12
2018-02-05T04:17:56.677Z,1021.10
2018-02-05T04:18:56.730Z,1021.11
2018-02-05T04:19:56.687Z,1021.14
2018-02-05T04:20:56.844Z,1021.15
2018-02-05T04:21:56.679Z,1021.16
2018-02-05T04:22:56.859Z,1021.12
2018-02-05T04:23:56.678Z,1021.19
2018-02-05T04:24:56.871Z,1021.17
2018-02-05T04:25:56.684Z,1021.20
2018-02-05T04:26:56.781Z,1021.17
2018-02-05T04:27:56.706Z,1021.20
2018-02-05T04:28:56.793Z,1021.23
2018-02-05T04:29:56.698Z,1021.20
2018-02-05T04:30:56.808Z,1021.26
2018-02-05T04:31:56.683Z,1021.21
2018-02-05T04:32:56.822Z,1021.21
2018-02-05T04:33:56.685Z,1021.23
2018-02-05T04:34:56.837Z,1021.29
2018-02-05T04:35:56.685Z,1021.24
2018-02-05T04:36:56.848Z,1021.20
2018-02-05T04:37:56.686Z,1021.23
2018-02-05T04:38:56.860Z,1021.27
2018-02-05T04:39:56.686Z,1021.23
2018-02-05T04:40:56.874Z,1021.25
2018-02-05T04:41:56.691Z,1021.27
2018-02-05T04:42:56.784Z,1021.26
2018-02-05T04:43:56.701Z,1021.28
2018-02-05T04:44:56.797Z,1021.26
2018-02-05T04:45:56.704Z,1021.30
2018-02-05T04:46:56.811Z,1021.33
2018-02-05T04:47:56.697Z,1021.29
2018-02-05T04:48:56.833Z,1021.31
2018-02-05T04:49:56.695Z,1021.36
2018-02-05T04:50:56.699Z,1021.34
2018-02-05T04:51:56.691Z,1021.35
2018-02-05T04:52:56.785Z,1021.31
2018-02-05T04:53:56.700Z,1021.28
2018-02-05T04:54:56.786Z,1021.25
2018-02-05T04:55:56.693Z,1021.34
2018-02-05T04:56:56.806Z,1021.27
2018-02-05T04:57:56.697Z,1021.30
2018-02-05T04:58:56.816Z,1021.26
2018-02-05T04:59:56.693Z,1021.28
2018-02-05T05:00:56.729Z,1021.28
2018-02-05T05:01:56.705Z,1021.23
2018-02-05T05:02:56.742Z,1021.26
2018-02-05T05:03:56.698Z,1021.32
2018-02-05T05:04:56.752Z,1021.28
2018-02-05T05:05:56.700Z,1021.29
2018-02-05T05:06:56.766Z,1021.27
2018-02-05T05:07:56.708Z,1021.29
2018-02-05T05:08:56.783Z,1021.29
2018-02-05T05:09:56.703Z,1021.36
2018-02-05T05:10:56.794Z,1021.28
2018-02-05T05:11:56.717Z,1021.27
2018-02-05T05:12:57.832Z,1021.29
2018-02-05T05:13:56.704Z,1021.27
2018-02-05T05:14:56.822Z,1021.26
2018-02-05T05:15:56.711Z,1021.31
2018-02-05T05:16:56.833Z,1021.33
2018-02-05T05:17:56.708Z,1021.30
2018-02-05T05:18:56.711Z,1021.27
2018-02-05T05:19:56.706Z,1021.28
2018-02-05T05:20:56.762Z,1021.24
2018-02-05T05:21:56.705Z,1021.22
2018-02-05T05:22:56.775Z,1021.29
2018-02-05T05:23:56.715Z,1021.25
2018-02-05T05:24:56.766Z,1021.22
2018-02-05T05:25:56.731Z,1021.25
2018-02-05T05:26:56.713Z,1021.25
2018-02-05T05:27:56.820Z,1021.22
2018-02-05T05:28:56.719Z,1021.26
2018-02-05T05:29:56.823Z,1021.23
2018-02-05T05:30:56.715Z,1021.27
2018-02-05T05:31:57.758Z,1021.28
2018-02-05T05:32:56.716Z,1021.21
2018-02-05T05:33:56.849Z,1021.24
2018-02-05T05:34:56.717Z,1021.21
2018-02-05T05:35:56.759Z,1021.18
2018-02-05T05:36:56.712Z,1021.20
2018-02-05T05:37:56.775Z,1021.24
2018-02-05T05:38:56.724Z,1021.28
2018-02-05T05:39:57.811Z,1021.29
2018-02-05T05:40:56.721Z,1021.22
2018-02-05T05:41:56.804Z,1021.20
2018-02-05T05:42:56.716Z,1021.20
2018-02-05T05:43:57.839Z,1021.23
2018-02-05T05:44:56.718Z,1021.26
2018-02-05T05:45:56.828Z,1021.27
2018-02-05T05:46:56.728Z,1021.26
2018-02-05T05:47:58.036Z,1021.30
2018-02-05T05:48:56.725Z,1021.33
2018-02-05T05:49:56.866Z,1021.28
2018-02-05T05:50:56.720Z,1021.29
2018-02-05T05:51:57.163Z,1021.28
2018-02-05T05:52:56.735Z,1021.25
2018-02-05T05:53:58.031Z,1021.26
2018-02-05T05:54:56.723Z,1021.29
2018-02-05T05:55:56.802Z,1021.24
2018-02-05T05:56:56.723Z,1021.25
2018-02-05T05:57:56.815Z,1021.31
2018-02-05T05:58:56.755Z,1021.27
2018-02-05T05:59:56.830Z,1021.26
2018-02-05T06:00:57.119Z,1021.26
2018-02-05T06:01:56.839Z,1021.28
2018-02-05T06:02:56.726Z,1021.28
2018-02-05T06:03:56.860Z,1021.33
2018-02-05T06:04:56.728Z,1021.29
2018-02-05T06:05:56.871Z,1021.32
2018-02-05T06:06:56.731Z,1021.34
2018-02-05T06:07:56.884Z,1021.33
2018-02-05T06:08:56.725Z,1021.31
2018-02-05T06:09:56.761Z,1021.34
2018-02-05T06:10:56.731Z,1021.29
2018-02-05T06:11:56.802Z,1021.28
2018-02-05T06:12:56.739Z,1021.34
2018-02-05T06:13:56.816Z,1021.31
2018-02-05T06:14:56.738Z,1021.32
2018-02-05T06:15:56.787Z,1021.30
2018-02-05T06:16:56.732Z,1021.32
2018-02-05T06:17:56.809Z,1021.40
2018-02-05T06:18:56.737Z,1021.37
2018-02-05T06:19:56.810Z,1021.37
2018-02-05T06:20:56.731Z,1021.44
2018-02-05T06:21:56.872Z,1021.35
2018-02-05T06:22:56.740Z,1021.46
2018-02-05T06:23:56.837Z,1021.45
2018-02-05T06:24:56.741Z,1021.44
2018-02-05T06:25:56.816Z,1021.47
2018-02-05T06:26:56.738Z,1021.53
2018-02-05T06:27:56.834Z,1021.55
2018-02-05T06:28:56.750Z,1021.47
2018-02-05T06:29:56.825Z,1021.46
2018-02-05T06:30:56.740Z,1021.50
2018-02-05T06:31:56.854Z,1021.51
2018-02-05T06:32:56.736Z,1021.49
2018-02-05T06:33:56.803Z,1021.55
2018-02-05T06:34:56.739Z,1021.55
2018-02-05T06:35:56.876Z,1021.52
2018-02-05T06:36:56.736Z,1021.52
2018-02-05T06:37:56.746Z,1021.48
2018-02-05T06:38:56.743Z,1021.50
2018-02-05T06:39:57.768Z,1021.48
2018-02-05T06:40:56.752Z,1021.48
2018-02-05T06:41:56.913Z,1021.54
2018-02-05T06:42:56.737Z,1021.57
2018-02-05T06:43:56.817Z,1021.55
2018-02-05T06:44:56.753Z,1021.57
2018-02-05T06:45:56.844Z,1021.56
2018-02-05T06:46:56.750Z,1021.54
2018-02-05T06:47:56.915Z,1021.52
2018-02-05T06:48:56.745Z,1021.59
2018-02-05T06:49:56.863Z,1021.52
2018-02-05T06:50:56.745Z,1021.53
2018-02-05T06:51:56.871Z,1021.58
2018-02-05T06:52:56.744Z,1021.56
2018-02-05T06:53:57.917Z,1021.52
2018-02-05T06:54:56.743Z,1021.56
2018-02-05T06:55:56.908Z,1021.61
2018-02-05T06:56:56.746Z,1021.57
2018-02-05T06:57:56.923Z,1021.62
2018-02-05T06:58:56.746Z,1021.58
2018-02-05T06:59:56.831Z,1021.61
2018-02-05T07:00:56.748Z,1021.59
2018-02-05T07:01:56.841Z,1021.62
2018-02-05T07:02:56.748Z,1021.66
2018-02-05T07:03:56.852Z,1021.63
2018-02-05T07:04:56.749Z,1021.65
2018-02-05T07:05:56.866Z,1021.66
2018-02-05T07:06:56.773Z,1021.64
2018-02-05T07:07:56.890Z,1021.66
2018-02-05T07:08:56.748Z,1021.68
2018-02-05T07:09:56.830Z,1021.70
2018-02-05T07:10:56.756Z,1021.71
2018-02-05T07:11:56.916Z,1021.70
2018-02-05T07:12:56.825Z,1021.69
2018-02-05T07:13:56.934Z,1021.71
2018-02-05T07:14:56.749Z,1021.73
2018-02-05T07:15:56.935Z,1021.77
2018-02-05T07:16:56.766Z,1021.75
2018-02-05T07:17:56.846Z,1021.77
2018-02-05T07:18:56.751Z,1021.80
2018-02-05T07:19:56.858Z,1021.77
2018-02-05T07:20:56.794Z,1021.74
2018-02-05T07:21:56.802Z,1021.83
2018-02-05T07:22:56.755Z,1021.77
2018-02-05T07:23:56.882Z,1021.80
2018-02-05T07:24:56.763Z,1021.79
2018-02-05T07:25:56.906Z,1021.82
2018-02-05T07:26:56.757Z,1021.88
2018-02-05T07:27:56.849Z,1021.86
2018-02-05T07:28:56.755Z,1021.91
2018-02-05T07:29:56.870Z,1021.86
2018-02-05T07:30:56.763Z,1021.90
2018-02-05T07:31:56.885Z,1021.86
2018-02-05T07:32:56.757Z,1021.89
2018-02-05T07:33:56.795Z,1021.83
2018-02-05T07:34:56.761Z,1021.88
2018-02-05T07:35:56.804Z,1021.88
2018-02-05T07:36:56.766Z,1021.89
2018-02-05T07:37:56.821Z,1021.90
2018-02-05T07:38:56.769Z,1021.98
2018-02-05T07:39:56.832Z,1021.95
2018-02-05T07:40:56.770Z,1022.01
2018-02-05T07:41:56.853Z,1021.93
2018-02-05T07:42:56.760Z,1022.01
2018-02-05T07:43:56.839Z,1021.96
2018-02-05T07:44:56.764Z,1021.93
2018-02-05T07:45:56.764Z,1021.94
2018-02-05T07:46:56.769Z,1021.93
2018-02-05T07:47:56.777Z,1021.89
2018-02-05T07:48:56.764Z,1021.93
2018-02-05T07:49:56.800Z,1021.90
2018-02-05T07:50:56.767Z,1021.92
2018-02-05T07:51:56.890Z,1021.92
2018-02-05T07:52:56.765Z,1021.92
2018-02-05T07:53:56.903Z,1021.95
2018-02-05T07:54:56.767Z,1021.91
2018-02-05T07:55:56.920Z,1021.92
2018-02-05T07:56:56.773Z,1021.94
2018-02-05T07:57:56.942Z,1021.99
2018-02-05T07:58:56.766Z,1021.95
2018-02-05T07:59:56.944Z,1021.98
2018-02-05T08:00:56.770Z,1021.92
2018-02-05T08:01:56.954Z,1021.95
2018-02-05T08:02:56.772Z,1021.94
2018-02-05T08:03:56.913Z,1021.95
2018-02-05T08:04:56.811Z,1021.91
2018-02-05T08:05:56.942Z,1021.97
2018-02-05T08:06:56.771Z,1021.94
2018-02-05T08:07:56.955Z,1021.95
2018-02-05T08:08:56.767Z,1021.99
2018-02-05T08:09:56.853Z,1021.95
2018-02-05T08:10:56.796Z,1021.98
2018-02-05T08:11:57.913Z,1021.99
2018-02-05T08:12:56.771Z,1021.96
2018-02-05T08:13:56.886Z,1021.96
2018-02-05T08:14:56.779Z,1021.99
2018-02-05T08:15:56.896Z,1021.96
2018-02-05T08:16:56.771Z,1022.01
2018-02-05T08:17:56.908Z,1021.98
2018-02-05T08:18:56.778Z,1022.01
2018-02-05T08:19:56.973Z,1021.97
2018-02-05T08:20:56.778Z,1021.95
2018-02-05T08:21:56.951Z,1022.00
2018-02-05T08:22:56.777Z,1021.93
2018-02-05T08:23:56.854Z,1021.94
2018-02-05T08:24:56.783Z,1021.93
2018-02-05T08:25:56.884Z,1021.92
2018-02-05T08:26:56.787Z,1021.94
2018-02-05T08:27:56.916Z,1021.92
2018-02-05T08:28:56.778Z,1021.90
2018-02-05T08:29:58.976Z,1021.90
2018-02-05T08:30:56.793Z,1021.88
2018-02-05T08:31:56.949Z,1021.87
2018-02-05T08:32:56.781Z,1021.92
2018-02-05T08:33:56.954Z,1021.87
2018-02-05T08:34:56.786Z,1021.92
2018-02-05T08:35:56.967Z,1021.95
2018-02-05T08:36:56.781Z,1021.89
2018-02-05T08:37:56.980Z,1021.91
2018-02-05T08:38:56.782Z,1021.95
2018-02-05T08:39:57.919Z,1021.92
2018-02-05T08:40:56.784Z,1021.92
2018-02-05T08:41:56.906Z,1021.96
2018-02-05T08:42:56.793Z,1021.94
2018-02-05T08:43:57.987Z,1021.88
2018-02-05T08:44:56.789Z,1021.88
2018-02-05T08:45:56.935Z,1021.94
2018-02-05T08:46:56.816Z,1021.93
2018-02-05T08:47:56.944Z,1021.85
2018-02-05T08:48:56.785Z,1021.88
2018-02-05T08:49:56.857Z,1021.88
2018-02-05T08:50:56.788Z,1021.99
2018-02-05T08:51:56.981Z,1021.91
2018-02-05T08:52:56.791Z,1021.89
2018-02-05T08:53:56.992Z,1021.92
2018-02-05T08:54:56.786Z,1021.93
2018-02-05T08:55:56.896Z,1021.91
2018-02-05T08:56:56.792Z,1021.94
2018-02-05T08:57:56.813Z,1021.95
2018-02-05T08:58:56.789Z,1021.90
2018-02-05T08:59:56.824Z,1021.94
2018-02-05T09:00:56.790Z,1021.96
2018-02-05T09:01:56.840Z,1021.86
2018-02-05T09:02:56.788Z,1021.90
2018-02-05T09:03:56.852Z,1021.86
2018-02-05T09:04:56.791Z,1021.89
2018-02-05T09:05:57.894Z,1021.91
2018-02-05T09:06:56.794Z,1021.89
2018-02-05T09:07:56.885Z,1021.90
2018-02-05T09:08:56.794Z,1021.92
2018-02-05T09:09:57.914Z,1021.91
2018-02-05T09:10:56.798Z,1021.88
2018-02-05T09:11:56.904Z,1021.93
2018-02-05T09:12:56.796Z,1021.92
2018-02-05T09:13:56.928Z,1021.84
2018-02-05T09:14:56.798Z,1021.87
2018-02-05T09:15:56.839Z,1021.84
2018-02-05T09:16:56.813Z,1021.90
2018-02-05T09:17:57.884Z,1021.90
2018-02-05T09:18:56.801Z,1021.95
2018-02-05T09:19:56.860Z,1021.91
2018-02-05T09:20:56.833Z,1021.94
2018-02-05T09:21:56.893Z,1021.92
2018-02-05T09:22:56.798Z,1021.98
2018-02-05T09:23:56.893Z,1021.87
2018-02-05T09:24:56.799Z,1021.97
2018-02-05T09:25:56.909Z,1021.98
2018-02-05T09:26:56.801Z,1021.99
2018-02-05T09:27:56.917Z,1021.97
2018-02-05T09:28:56.814Z,1021.98
2018-02-05T09:29:56.831Z,1021.95
2018-02-05T09:30:56.804Z,1021.91
2018-02-05T09:31:56.838Z,1021.90
2018-02-05T09:32:56.824Z,1021.93
2018-02-05T09:33:56.881Z,1021.91
2018-02-05T09:34:56.821Z,1021.90
2018-02-05T09:35:56.889Z,1021.90
2018-02-05T09:36:56.808Z,1021.97
2018-02-05T09:37:56.880Z,1021.93
2018-02-05T09:38:56.813Z,1021.95
2018-02-05T09:39:58.947Z,1022.00
2018-02-05T09:40:56.855Z,1021.96
2018-02-05T09:41:56.914Z,1021.98
2018-02-05T09:42:56.811Z,1021.93
2018-02-05T09:43:57.945Z,1021.97
2018-02-05T09:44:56.858Z,1021.94
2018-02-05T09:45:58.880Z,1021.91
2018-02-05T09:46:56.810Z,1021.96
2018-02-05T09:47:56.966Z,1021.90
2018-02-05T09:48:56.821Z,1021.90
2018-02-05T09:49:58.911Z,1021.91
2018-02-05T09:50:56.847Z,1021.92
2018-02-05T09:51:56.878Z,1021.93
2018-02-05T09:52:56.813Z,1021.94
2018-02-05T09:53:56.890Z,1021.92
2018-02-05T09:54:57.138Z,1021.93
2018-02-05T09:55:56.952Z,1021.89
2018-02-05T09:56:56.813Z,1022.00
2018-02-05T09:57:56.820Z,1021.95
2018-02-05T09:58:56.810Z,1021.95
2018-02-05T09:59:57.877Z,1021.99
2018-02-05T10:00:56.816Z,1021.93
2018-02-05T10:01:56.867Z,1021.95
2018-02-05T10:02:56.813Z,1021.95
2018-02-05T10:03:56.881Z,1021.94
2018-02-05T10:04:56.814Z,1021.98
2018-02-05T10:05:56.894Z,1021.94
2018-02-05T10:06:56.835Z,1021.91
2018-02-05T10:07:56.946Z,1021.91
2018-02-05T10:08:56.830Z,1021.91
2018-02-05T10:09:56.923Z,1021.87
2018-02-05T10:10:56.821Z,1021.86
2018-02-05T10:11:56.991Z,1021.88
2018-02-05T10:12:56.819Z,1021.87
2018-02-05T10:13:56.847Z,1021.89
2018-02-05T10:14:56.823Z,1021.84
2018-02-05T10:15:56.868Z,1021.92
2018-02-05T10:16:56.839Z,1021.91
2018-02-05T10:17:56.874Z,1021.89
2018-02-05T10:18:56.820Z,1021.93
2018-02-05T10:19:56.886Z,1021.91
2018-02-05T10:20:56.900Z,1021.92
2018-02-05T10:21:56.861Z,1021.91
2018-02-05T10:22:56.817Z,1021.88
2018-02-05T10:23:56.889Z,1021.93
2018-02-05T10:24:56.840Z,1021.89
2018-02-05T10:25:57.914Z,1021.90
2018-02-05T10:26:56.825Z,1021.88
2018-02-05T10:27:56.911Z,1021.89
2018-02-05T10:28:56.840Z,1021.89
2018-02-05T10:29:56.931Z,1021.84
2018-02-05T10:30:56.825Z,1021.88
2018-02-05T10:31:56.993Z,1021.79
2018-02-05T10:32:56.836Z,1021.85
2018-02-05T10:33:56.839Z,1021.88
2018-02-05T10:34:57.096Z,1021.78
2018-02-05T10:35:57.894Z,1021.75
2018-02-05T10:36:56.832Z,1021.74
2018-02-05T10:38:07.734Z,1021.81
2018-02-05T10:38:56.832Z,1021.79
2018-02-05T10:39:56.883Z,1021.72
2018-02-05T10:40:56.836Z,1021.77
2018-02-05T10:41:56.898Z,1021.75
2018-02-05T10:42:56.879Z,1021.74
2018-02-05T10:43:56.911Z,1021.81
2018-02-05T10:44:56.835Z,1021.75
2018-02-05T10:46:03.723Z,1021.76
2018-02-05T10:46:56.834Z,1021.77
2018-02-05T10:47:57.866Z,1021.73
2018-02-05T10:48:56.851Z,1021.70
2018-02-05T10:49:57.874Z,1021.70
2018-02-05T10:50:56.839Z,1021.69
2018-02-05T10:51:56.862Z,1021.69
2018-02-05T10:52:56.840Z,1021.70
2018-02-05T10:53:58.941Z,1021.70
2018-02-05T10:54:56.838Z,1021.67
2018-02-05T10:55:57.936Z,1021.64
2018-02-05T10:56:56.839Z,1021.65
2018-02-05T10:57:56.911Z,1021.68
2018-02-05T10:58:56.847Z,1021.61
2018-02-05T10:59:56.924Z,1021.61
2018-02-05T11:00:56.865Z,1021.64
2018-02-05T11:01:56.945Z,1021.62
2018-02-05T11:02:56.844Z,1021.62
2018-02-05T11:03:56.955Z,1021.63
2018-02-05T11:04:56.856Z,1021.61
2018-02-05T11:05:58.915Z,1021.60
2018-02-05T11:06:56.838Z,1021.63
2018-02-05T11:07:57.900Z,1021.59
2018-02-05T11:08:56.843Z,1021.59
2018-02-05T11:09:57.915Z,1021.61
2018-02-05T11:10:56.848Z,1021.57
2018-02-05T11:12:01.723Z,1021.60
2018-02-05T11:12:56.848Z,1021.56
2018-02-05T11:14:02.749Z,1021.56
2018-02-05T11:14:56.877Z,1021.56
2018-02-05T11:15:57.951Z,1021.57
2018-02-05T11:16:56.866Z,1021.58
2018-02-05T11:18:01.756Z,1021.54
2018-02-05T11:18:56.850Z,1021.47
2018-02-05T11:20:03.732Z,1021.47
2018-02-05T11:20:56.857Z,1021.50
2018-02-05T11:21:56.880Z,1021.50
2018-02-05T11:22:56.880Z,1021.46
2018-02-05T11:23:56.849Z,1021.46
2018-02-05T11:24:56.858Z,1021.46
2018-02-05T11:25:56.859Z,1021.43
2018-02-05T11:26:56.905Z,1021.47
2018-02-05T11:27:56.901Z,1021.47
2018-02-05T11:28:56.928Z,1021.42
2018-02-05T11:29:56.877Z,1021.41
2018-02-05T11:30:56.851Z,1021.42
2018-02-05T11:31:56.857Z,1021.40
2018-02-05T11:32:56.863Z,1021.31
2018-02-05T11:33:56.854Z,1021.37
2018-02-05T11:34:56.867Z,1021.34
2018-02-05T11:35:56.870Z,1021.39
2018-02-05T11:36:56.867Z,1021.33
2018-02-05T11:37:56.882Z,1021.34
2018-02-05T11:38:56.859Z,1021.31
2018-02-05T11:39:56.861Z,1021.42
2018-02-05T11:40:56.872Z,1021.36
2018-02-05T11:41:57.930Z,1021.34
2018-02-05T11:42:56.892Z,1021.25
2018-02-05T11:43:56.858Z,1021.21
2018-02-05T11:44:56.868Z,1021.31
2018-02-05T11:45:57.916Z,1021.24
2018-02-05T11:46:56.870Z,1021.27
2018-02-05T11:47:56.918Z,1021.25
2018-02-05T11:48:56.875Z,1021.29
2018-02-05T11:49:56.872Z,1021.29
2018-02-05T11:50:56.926Z,1021.25
2018-02-05T11:51:56.872Z,1021.24
2018-02-05T11:52:56.937Z,1021.25
2018-02-05T11:53:56.870Z,1021.26
2018-02-05T11:54:56.892Z,1021.21
2018-02-05T11:55:56.964Z,1021.27
2018-02-05T11:56:56.874Z,1021.19
2018-02-05T11:57:56.872Z,1021.21
2018-02-05T11:58:56.874Z,1021.16
2018-02-05T11:59:56.909Z,1021.18
2018-02-05T12:00:56.869Z,1021.19
2018-02-05T12:01:56.876Z,1021.19
2018-02-05T12:02:56.880Z,1021.15
2018-02-05T12:03:56.897Z,1021.07
2018-02-05T12:04:56.883Z,1021.08
2018-02-05T12:05:56.923Z,1021.08